Linesville, Pennsylvania
Current Conditions -  °F | °C
As of 11:53 AM on Friday 21 Nov 2014 (Local Time) from KGKJ Reporting Station
Overcast Overcast  
Wind Chill: 16°   Ceiling: 4100
Heat Index: 23°   Visibility: 10mi
Dew Point: 12°   Wind: 6mph
Humidity: 63%   Direction: 290°WNW
Pressure: 30.39"   Gusts: NA
Location:  41.66°N, 80.42°W
Report Text: KGKJ 211653Z AUTO 29005KT 10SM OVC041 M05/M11 A3039 RMK AO2 SLP313 T10501111 TSNO
Loading
Personal Weather Stations






























Interactive Weather Map New forecast layout! Learn more

10-Day Weather Forecast

Advertisements
Track Severe Weather on mobile